Time;durP1;ratioP1;P1;durP2;ratioP2;P2;SDS_P1;SDS_P2;PMS_P1;PMS_P2;Temp;Humidity;BMP_temperature;BMP_pressure;BME280_temperature;BME280_humidity;BME280_pressure;Samples;Min_cycle;Max_cycle;Signal;HPM_P1;HPM_P2
2021/06/19 00:02:28;;;;;;;6.00;4.93;;;;;;;13.86;72.65;101266.84;4835243;29;20050;-80
2021/06/19 00:04:56;;;;;;;7.32;5.65;;;;;;;14.00;72.70;101299.53;4848809;29;20054;-80
2021/06/19 00:07:26;;;;;;;7.63;5.75;;;;;;;13.99;72.89;101289.94;4851821;29;20060;-81
2021/06/19 00:09:56;;;;;;;8.07;5.88;;;;;;;13.86;72.97;101279.97;4850235;29;20081;-80
2021/06/19 00:12:24;;;;;;;6.03;5.43;;;;;;;13.81;73.20;101281.13;4850469;29;20045;-80
2021/06/19 00:14:59;;;;;;;6.55;5.72;;;;;;;13.83;73.29;101293.25;4854026;29;20107;-80
2021/06/19 00:17:44;;;;;;;8.13;6.45;;;;;;;13.86;73.19;101297.50;4856944;29;20387;-80
2021/06/19 00:20:29;;;;;;;6.82;6.13;;;;;;;13.85;73.45;101296.63;4842685;29;20054;-80
2021/06/19 00:23:32;;;;;;;6.65;6.05;;;;;;;13.92;72.90;101294.63;4857491;29;20062;-80
2021/06/19 00:26:46;;;;;;;7.40;6.70;;;;;;;13.87;72.88;101294.81;4880149;23;20118;31
2021/06/19 00:29:42;;;;;;;9.98;7.22;;;;;;;13.80;73.39;101295.97;4840773;29;20062;-78
2021/06/19 00:32:11;;;;;;;8.27;7.22;;;;;;;13.83;73.70;101300.25;4836976;29;20110;-79
2021/06/19 00:34:38;;;;;;;8.15;6.70;;;;;;;13.56;72.79;101248.03;4849186;29;20062;-78
2021/06/19 00:37:07;;;;;;;7.20;6.60;;;;;;;13.90;72.84;101299.06;4849006;29;20038;-78
2021/06/19 00:39:36;;;;;;;9.02;7.10;;;;;;;13.74;72.97;101273.50;4849531;29;20046;-78
2021/06/19 00:42:05;;;;;;;8.13;7.32;;;;;;;13.79;73.42;101294.28;4846767;29;20054;-78
2021/06/19 00:44:33;;;;;;;8.80;7.90;;;;;;;13.65;73.37;101265.16;4834641;29;20058;-79
2021/06/19 00:47:01;;;;;;;7.82;7.03;;;;;;;13.69;73.06;101271.97;4826049;29;20066;-79
2021/06/19 00:49:28;;;;;;;9.48;7.97;;;;;;;13.75;73.25;101288.31;4825924;29;20567;-79
2021/06/19 00:51:56;;;;;;;8.95;7.47;;;;;;;13.75;73.33;101284.84;4825830;29;20058;-79
2021/06/19 00:54:23;;;;;;;8.75;7.50;;;;;;;13.72;73.51;101285.81;4826218;29;20142;-79
2021/06/19 00:56:50;;;;;;;8.70;7.43;;;;;;;13.33;73.44;101207.00;4825763;29;20050;-78
2021/06/19 00:59:20;;;;;;;9.38;7.70;;;;;;;13.57;73.58;101260.22;4830383;29;20050;-79
2021/06/19 01:05:15;;;;;;;8.35;7.50;;;;;;;13.52;73.98;101277.94;4927969;23;20060;-80
2021/06/19 01:08:14;;;;;;;8.82;8.02;;;;;;;13.37;74.23;101261.03;4880294;29;20057;-79
2021/06/19 01:11:33;;;;;;;8.20;7.40;;;;;;;13.48;73.99;101253.59;4896384;29;20068;-79
2021/06/19 01:14:09;;;;;;;9.20;8.18;;;;;;;13.51;73.80;101263.09;4899474;29;20049;-79
2021/06/19 01:17:11;;;;;;;8.77;7.30;;;;;;;13.53;73.24;101258.66;4897949;24;20101;-79
2021/06/19 01:20:15;;;;;;;9.38;8.38;;;;;;;13.50;73.34;101264.88;4901917;29;20052;-80
2021/06/19 01:23:38;;;;;;;9.73;8.38;;;;;;;13.50;73.78;101267.50;4915319;23;20056;-79
2021/06/19 01:26:37;;;;;;;7.40;6.70;;;;;;;13.51;72.31;101269.22;4900019;29;20125;-79
2021/06/19 01:29:05;;;;;;;8.35;7.55;;;;;;;13.49;72.30;101259.69;4882315;29;20049;-80
2021/06/19 01:31:44;;;;;;;9.23;8.10;;;;;;;13.56;71.98;101261.13;4879736;29;20060;-80
2021/06/19 01:34:14;;;;;;;8.80;7.90;;;;;;;13.56;71.91;101259.38;4881767;29;20124;-80
2021/06/19 01:36:51;;;;;;;9.40;8.20;;;;;;;13.53;71.33;101258.66;4903826;23;20040;-80
2021/06/19 01:39:19;;;;;;;9.55;8.30;;;;;;;13.63;71.29;101286.19;4910699;23;20049;-80
2021/06/19 01:41:48;;;;;;;11.65;9.10;;;;;;;13.59;71.03;101276.75;4905895;23;20107;-79
2021/06/19 01:44:24;;;;;;;8.73;7.93;;;;;;;13.64;71.29;101284.44;4884935;29;20572;-80
2021/06/19 01:46:51;;;;;;;10.38;8.43;;;;;;;13.58;71.47;101275.03;4861014;29;20495;-79
2021/06/19 01:49:18;;;;;;;9.75;8.57;;;;;;;13.50;71.45;101264.88;4862898;29;20409;-80
2021/06/19 01:51:45;;;;;;;10.52;9.43;;;;;;;13.52;71.18;101276.16;4864649;29;20045;-80
2021/06/19 01:54:12;;;;;;;10.30;9.02;;;;;;;13.61;70.91;101277.56;4877995;29;20140;-80
2021/06/19 01:56:39;;;;;;;10.07;9.07;;;;;;;13.41;71.07;101249.50;4881636;29;20084;-80
2021/06/19 01:59:07;;;;;;;11.23;9.80;;;;;;;13.63;71.26;101282.72;4881604;29;20045;-80
2021/06/19 02:01:35;;;;;;;10.70;9.60;;;;;;;13.54;71.13;101276.94;4871065;29;20049;-80
2021/06/19 02:04:02;;;;;;;11.27;10.13;;;;;;;13.63;71.33;101288.81;4864178;29;20060;-80
2021/06/19 02:06:29;;;;;;;11.98;10.65;;;;;;;13.52;71.21;101286.63;4879386;29;20064;-80
2021/06/19 02:09:09;;;;;;;10.77;9.68;;;;;;;13.74;70.87;101305.00;4880601;29;20055;-80
2021/06/19 02:11:37;;;;;;;10.77;9.68;;;;;;;13.77;70.67;101291.72;4880318;29;20567;-80
2021/06/19 02:14:05;;;;;;;10.75;9.65;;;;;;;13.82;70.85;101319.53;4880425;29;20053;-80
2021/06/19 02:16:35;;;;;;;11.75;10.70;;;;;;;13.78;71.26;101324.09;4880336;29;20115;-80
2021/06/19 02:19:02;;;;;;;12.50;10.75;;;;;;;13.54;71.16;101294.47;4880968;29;20055;-80
2021/06/19 02:21:30;;;;;;;11.48;10.38;;;;;;;13.69;71.08;101303.47;4880129;29;20128;-80
2021/06/19 02:23:58;;;;;;;11.65;10.45;;;;;;;13.82;71.14;101323.03;4868758;29;20136;-80
2021/06/19 02:26:25;;;;;;;12.43;11.23;;;;;;;13.84;70.97;101329.06;4862890;29;20563;-80
2021/06/19 02:28:54;;;;;;;11.45;10.35;;;;;;;13.87;70.82;101325.47;4881847;29;20049;-80
2021/06/19 02:31:23;;;;;;;12.27;10.02;;;;;;;13.79;70.54;101310.03;4864863;29;20132;-80
2021/06/19 02:33:49;;;;;;;12.18;10.93;;;;;;;13.66;70.69;101287.84;4861945;29;20061;-80
2021/06/19 02:36:17;;;;;;;11.75;10.65;;;;;;;13.79;70.96;101317.88;4864563;29;20080;-80
2021/06/19 02:38:43;;;;;;;11.43;10.25;;;;;;;13.61;71.41;101291.50;4863593;29;20084;-79
2021/06/19 02:41:09;;;;;;;12.18;11.00;;;;;;;13.64;71.47;101289.69;4867366;29;20518;-79
2021/06/19 02:43:35;;;;;;;11.32;10.10;;;;;;;13.62;71.38;101276.63;4891925;29;20100;-80
2021/06/19 02:46:02;;;;;;;10.82;9.77;;;;;;;13.61;71.26;101257.41;4881537;29;20455;-80
2021/06/19 02:48:28;;;;;;;11.27;10.10;;;;;;;13.74;71.51;101276.13;4866666;29;20460;-81
2021/06/19 02:50:56;;;;;;;11.82;10.40;;;;;;;13.69;71.43;101258.88;4862323;29;20498;-80
2021/06/19 02:53:25;;;;;;;10.65;9.65;;;;;;;13.69;71.59;101257.06;4864394;29;20045;-80
2021/06/19 02:55:51;;;;;;;11.57;10.38;;;;;;;13.56;71.81;101237.53;4862368;29;20128;-80
2021/06/19 02:58:17;;;;;;;10.63;9.60;;;;;;;13.59;72.13;101248.75;4876565;29;20061;-80
2021/06/19 03:00:44;;;;;;;10.90;9.80;;;;;;;13.51;72.24;101231.63;4880373;29;20053;-80
2021/06/19 03:03:10;;;;;;;10.70;9.60;;;;;;;13.57;72.38;101249.72;4879706;29;20044;-80
2021/06/19 03:05:37;;;;;;;10.90;9.88;;;;;;;13.41;72.51;101233.78;4881192;29;20045;-80
2021/06/19 03:08:05;;;;;;;11.52;9.65;;;;;;;13.59;72.33;101253.16;4864399;29;20077;-80
2021/06/19 03:10:34;;;;;;;10.60;9.50;;;;;;;13.61;71.97;101251.31;4862658;29;20053;-80
2021/06/19 03:13:00;;;;;;;11.57;10.40;;;;;;;13.49;72.52;101252.69;4875894;29;20053;-80
2021/06/19 03:15:29;;;;;;;9.45;8.32;;;;;;;13.52;72.31;101264.81;4873691;29;20048;-80
2021/06/19 03:17:55;;;;;;;8.32;7.47;;;;;;;13.56;72.06;101251.50;4861843;29;20081;-80
2021/06/19 03:20:22;;;;;;;8.52;7.72;;;;;;;13.55;72.06;101252.44;4862300;29;20049;-80
2021/06/19 03:22:53;;;;;;;9.88;8.95;;;;;;;13.36;72.05;101210.34;4861151;29;20061;-80
2021/06/19 03:25:24;;;;;;;10.50;9.05;;;;;;;13.54;72.21;101250.72;4869375;29;20053;-80
2021/06/19 03:27:51;;;;;;;11.20;8.35;;;;;;;13.58;72.39;101254.91;4866183;29;20053;-80
2021/06/19 03:30:19;;;;;;;9.80;8.80;;;;;;;13.32;72.53;101221.88;4864423;29;20054;-80
2021/06/19 03:32:46;;;;;;;10.57;9.57;;;;;;;13.57;72.81;101261.09;4865576;29;20056;-80
2021/06/19 03:35:13;;;;;;;10.85;9.60;;;;;;;13.47;73.01;101251.03;4866073;29;20113;-80
2021/06/19 03:37:40;;;;;;;9.75;8.88;;;;;;;13.27;72.93;101226.47;4867348;29;20114;-80
2021/06/19 03:40:09;;;;;;;13.70;9.13;;;;;;;13.56;72.55;101269.88;4874937;29;20061;-80
2021/06/19 03:42:37;;;;;;;10.32;9.32;;;;;;;13.21;72.34;101211.00;4865154;29;20364;-80
2021/06/19 03:45:05;;;;;;;10.18;9.18;;;;;;;13.44;72.45;101242.38;4865859;29;20060;-81
2021/06/19 03:47:32;;;;;;;11.80;9.63;;;;;;;13.05;72.28;101171.41;4869342;29;20168;-80
2021/06/19 03:49:58;;;;;;;10.93;9.77;;;;;;;13.56;73.22;101287.38;4867112;29;20057;-81
2021/06/19 03:52:24;;;;;;;11.30;10.20;;;;;;;13.08;73.20;101218.47;4884576;29;20100;-80
2021/06/19 03:54:51;;;;;;;11.48;10.38;;;;;;;13.57;73.38;101294.31;4867839;29;20060;-80
2021/06/19 03:57:25;;;;;;;11.13;10.00;;;;;;;13.21;73.22;101237.22;4865004;29;20065;-80
2021/06/19 03:59:52;;;;;;;11.30;9.18;;;;;;;13.63;72.89;101299.31;4865941;29;20050;-81
2021/06/19 04:02:21;;;;;;;11.13;10.13;;;;;;;13.69;72.81;101303.47;4879497;29;20053;-80
2021/06/19 04:04:48;;;;;;;11.00;10.05;;;;;;;13.66;72.59;101295.72;4875705;29;20124;-80
2021/06/19 04:07:14;;;;;;;12.73;10.50;;;;;;;13.53;72.73;101283.09;4873913;29;20057;-81
2021/06/19 04:09:41;;;;;;;11.80;10.55;;;;;;;13.32;72.87;101270.81;4867975;29;20049;-80
2021/06/19 04:12:08;;;;;;;10.18;8.98;;;;;;;13.56;72.73;101311.84;4876661;29;20053;-81
2021/06/19 04:14:34;;;;;;;8.95;8.05;;;;;;;13.48;72.20;101294.72;4882714;29;20097;-80
2021/06/19 04:17:02;;;;;;;8.75;7.85;;;;;;;13.52;72.23;101327.75;4884928;29;20049;-80
2021/06/19 04:19:30;;;;;;;8.18;7.10;;;;;;;13.44;72.08;101314.97;4891958;29;20064;-79
2021/06/19 04:21:59;;;;;;;8.95;6.68;;;;;;;13.51;72.11;101326.91;4886570;29;20082;-79
2021/06/19 04:24:26;;;;;;;9.15;7.75;;;;;;;13.49;72.46;101335.75;4865777;29;20045;-81
2021/06/19 04:26:54;;;;;;;7.88;7.03;;;;;;;13.32;72.72;101321.50;4864887;29;20085;-80
2021/06/19 04:29:22;;;;;;;7.65;6.30;;;;;;;13.36;72.17;101325.72;4864359;29;20609;-80
2021/06/19 04:31:50;;;;;;;6.68;5.80;;;;;;;13.36;71.95;101309.97;4864948;29;20110;-80
2021/06/19 04:34:19;;;;;;;7.05;5.10;;;;;;;13.57;71.37;101326.66;4865019;29;20109;-80
2021/06/19 04:36:48;;;;;;;6.32;4.50;;;;;;;13.31;71.45;101288.34;4865395;29;20216;-80
2021/06/19 04:39:16;;;;;;;7.35;4.80;;;;;;;13.56;71.38;101339.81;4866172;29;20518;-80
2021/06/19 04:45:02;;;;;;;6.85;4.40;;;;;;;13.54;71.65;101346.91;4853710;29;20523;-80
2021/06/19 04:47:31;;;;;;;6.90;4.72;;;;;;;13.23;71.42;101296.53;4846978;29;20068;-80
2021/06/19 04:50:00;;;;;;;6.63;3.92;;;;;;;13.60;71.42;101354.53;4846429;29;20427;-80
2021/06/19 04:52:31;;;;;;;5.45;3.83;;;;;;;13.44;70.87;101336.78;4850631;29;20148;-80
2021/06/19 04:55:00;;;;;;;5.05;4.03;;;;;;;13.53;71.06;101351.28;4870859;29;20050;-80
2021/06/19 04:57:28;;;;;;;5.78;3.63;;;;;;;13.51;70.84;101321.69;4871040;29;20060;-81
2021/06/19 04:59:57;;;;;;;4.22;3.72;;;;;;;13.65;70.61;101336.84;4864408;29;20046;-80
2021/06/19 05:02:25;;;;;;;4.55;3.47;;;;;;;13.51;70.00;101321.69;4878549;29;20061;-80
2021/06/19 05:04:52;;;;;;;6.35;4.00;;;;;;;13.38;69.74;101296.88;4882564;29;20059;-80
2021/06/19 05:07:20;;;;;;;4.82;3.22;;;;;;;13.56;69.78;101329.34;4882709;29;20067;-80
2021/06/19 05:09:47;;;;;;;7.18;3.58;;;;;;;13.71;69.57;101330.50;4883006;29;20053;-80
2021/06/19 05:12:15;;;;;;;4.50;2.60;;;;;;;13.70;69.06;101315.66;4880931;29;20522;-80
2021/06/19 05:14:52;;;;;;;4.32;2.80;;;;;;;13.68;68.90;101317.50;4864456;29;20508;-80
2021/06/19 05:17:21;;;;;;;4.97;2.70;;;;;;;13.63;68.03;101316.84;4863342;29;20050;-80
2021/06/19 05:19:49;;;;;;;4.50;2.60;;;;;;;13.71;68.20;101327.88;4865370;29;20117;-80
2021/06/19 05:22:16;;;;;;;3.13;2.58;;;;;;;13.59;67.96;101290.72;4867163;29;20053;-80
2021/06/19 05:24:44;;;;;;;3.65;2.60;;;;;;;13.58;68.57;101324.88;4869486;29;20069;-80
2021/06/19 05:27:15;;;;;;;6.20;2.75;;;;;;;13.56;68.10;101321.47;4876998;29;20050;-80
2021/06/19 05:29:43;;;;;;;6.32;2.78;;;;;;;13.53;68.46;101308.50;4877173;29;20102;-80
2021/06/19 05:32:11;;;;;;;4.32;2.63;;;;;;;13.28;68.62;101278.84;4877329;29;20101;-80
2021/06/19 05:34:41;;;;;;;4.57;2.40;;;;;;;13.64;68.64;101311.50;4877607;29;20050;-80
2021/06/19 05:37:13;;;;;;;5.40;2.97;;;;;;;13.75;68.36;101319.78;4884848;29;20063;-80
2021/06/19 05:39:40;;;;;;;4.25;2.67;;;;;;;13.80;68.53;101318.75;4885710;29;20125;-79
2021/06/19 05:42:08;;;;;;;3.65;2.75;;;;;;;13.56;68.33;101274.25;4885092;29;20076;-80
2021/06/19 05:44:37;;;;;;;4.53;2.72;;;;;;;13.77;68.55;101317.13;4885260;29;20064;-78
2021/06/19 05:47:06;;;;;;;3.63;2.70;;;;;;;13.80;68.68;101308.28;4903035;29;20048;-79
2021/06/19 05:49:37;;;;;;;5.25;2.75;;;;;;;13.81;68.46;101304.72;4870935;29;20113;-79
2021/06/19 05:52:05;;;;;;;6.22;2.97;;;;;;;13.84;68.21;101313.31;4871442;29;20053;-79
2021/06/19 05:54:36;;;;;;;4.35;2.80;;;;;;;13.73;68.51;101303.28;4885279;29;20502;-79
2021/06/19 05:57:12;;;;;;;5.85;2.78;;;;;;;13.68;68.89;101323.56;4884860;29;20052;-79
2021/06/19 05:59:41;;;;;;;3.95;2.65;;;;;;;13.63;69.39;101311.59;4884235;29;20061;-79
2021/06/19 06:02:20;;;;;;;5.28;2.70;;;;;;;13.75;68.63;101309.28;4885314;29;20143;-79
2021/06/19 06:04:50;;;;;;;3.83;3.25;;;;;;;13.80;68.66;101316.13;4868402;29;20053;-79
2021/06/19 06:07:19;;;;;;;4.55;2.60;;;;;;;13.77;68.82;101319.75;4881470;29;20045;-79
2021/06/19 06:09:49;;;;;;;3.47;2.65;;;;;;;13.77;68.61;101317.13;4862236;29;20472;-79
2021/06/19 06:12:17;;;;;;;5.28;2.83;;;;;;;13.39;68.75;101273.19;4864500;29;20072;-79
2021/06/19 06:14:49;;;;;;;4.35;2.67;;;;;;;13.49;68.76;101289.41;4868902;29;20056;-80
2021/06/19 06:17:16;;;;;;;5.68;3.05;;;;;;;13.55;68.66;101280.41;4871102;29;20076;-79
2021/06/19 06:19:46;;;;;;;4.38;2.45;;;;;;;13.81;68.30;101317.84;4864811;29;20085;-80
2021/06/19 06:22:16;;;;;;;3.63;2.65;;;;;;;13.55;68.48;101296.16;4866522;29;20092;-79
2021/06/19 06:24:52;;;;;;;3.00;2.47;;;;;;;13.47;68.77;101306.97;4878240;29;20482;-79
2021/06/19 06:27:23;;;;;;;5.75;2.85;;;;;;;13.54;68.95;101329.41;4831327;29;20046;-79
2021/06/19 06:29:53;;;;;;;4.78;3.13;;;;;;;13.64;68.52;101326.41;4829574;29;20064;-79
2021/06/19 06:32:21;;;;;;;5.85;2.67;;;;;;;13.79;68.01;101327.53;4837116;29;20109;-79
2021/06/19 06:34:50;;;;;;;4.85;3.25;;;;;;;13.72;68.33;101317.31;4831401;29;20050;-79
2021/06/19 06:37:19;;;;;;;6.80;3.47;;;;;;;12.98;68.86;101220.63;4850013;29;20046;-79
2021/06/19 06:39:52;;;;;;;4.28;3.15;;;;;;;13.55;69.14;101304.88;4848759;29;20057;-79
2021/06/19 06:42:19;;;;;;;4.80;3.10;;;;;;;13.80;68.79;101314.34;4849073;29;20072;-79
2021/06/19 06:44:49;;;;;;;3.95;2.70;;;;;;;13.83;68.39;101295.88;4848628;29;20050;-79
2021/06/19 06:47:25;;;;;;;4.70;2.70;;;;;;;14.13;67.55;101313.00;4848994;29;20042;-80
2021/06/19 06:49:54;;;;;;;4.47;2.85;;;;;;;14.04;67.16;101283.59;4847447;29;20046;-80
2021/06/19 06:52:23;;;;;;;4.60;2.80;;;;;;;14.31;67.12;101316.59;4845508;29;20081;-81
2021/06/19 06:54:50;;;;;;;4.20;2.60;;;;;;;14.21;66.75;101303.03;4838132;29;20128;-80
2021/06/19 06:57:17;;;;;;;4.38;1.65;;;;;;;14.20;65.55;101283.78;4845907;29;20484;-80
2021/06/19 06:59:45;;;;;;;3.45;1.60;;;;;;;14.47;66.08;101317.59;4847119;29;20650;-79
2021/06/19 07:02:13;;;;;;;2.10;1.52;;;;;;;14.37;65.32;101311.91;4848383;29;20079;-80
2021/06/19 07:04:47;;;;;;;1.83;1.20;;;;;;;14.33;64.94;101301.59;4858206;29;20049;-79
2021/06/19 07:07:14;;;;;;;1.20;0.80;;;;;;;14.69;64.52;101319.31;4852398;29;20065;-79
2021/06/19 07:09:42;;;;;;;1.80;0.95;;;;;;;14.78;63.63;101300.50;4849954;29;20086;-81
2021/06/19 07:12:13;;;;;;;2.10;1.00;;;;;;;14.78;62.78;101255.81;4852891;29;20122;-81
2021/06/19 07:14:40;;;;;;;1.73;0.90;;;;;;;15.18;62.12;101313.53;4846759;29;20149;-79
2021/06/19 07:17:09;;;;;;;1.67;0.95;;;;;;;15.15;62.32;101296.13;4846663;29;20052;-80
2021/06/19 07:19:41;;;;;;;1.35;1.08;;;;;;;15.10;62.01;101268.34;4849354;29;20132;-80
2021/06/19 07:22:10;;;;;;;1.40;0.80;;;;;;;14.83;62.05;101206.50;4855312;29;20050;-79
2021/06/19 07:24:42;;;;;;;1.85;0.77;;;;;;;15.11;62.28;101264.78;4833971;29;20046;-79
2021/06/19 07:27:13;;;;;;;2.13;0.88;;;;;;;15.30;62.08;101301.56;4836614;29;20062;-79
2021/06/19 07:29:43;;;;;;;1.88;0.70;;;;;;;15.23;61.96;101292.28;4859235;29;20050;-79
2021/06/19 07:32:09;;;;;;;0.63;0.50;;;;;;;14.75;61.90;101215.69;4864295;29;20042;-78
2021/06/19 07:34:39;;;;;;;2.28;0.70;;;;;;;14.93;62.50;101277.03;4864551;29;20106;-78
2021/06/19 07:37:07;;;;;;;0.63;0.50;;;;;;;15.08;62.55;101275.47;4865144;29;20054;-78
2021/06/19 07:39:38;;;;;;;2.08;0.88;;;;;;;15.13;62.39;101269.03;4864829;29;20053;-79
2021/06/19 07:42:06;;;;;;;1.48;0.65;;;;;;;15.35;61.85;101270.63;4864637;29;20090;-79
2021/06/19 07:44:33;;;;;;;1.20;0.60;;;;;;;15.68;60.96;101270.75;4866175;29;20062;-78
2021/06/19 07:47:03;;;;;;;0.98;0.80;;;;;;;15.59;60.65;101244.06;4899868;23;20128;-79
2021/06/19 07:49:35;;;;;;;0.90;0.60;;;;;;;15.72;60.03;101241.63;4887093;29;20056;-79
2021/06/19 07:52:06;;;;;;;1.05;0.82;;;;;;;15.96;60.17;101277.25;4885164;29;20049;-79
2021/06/19 07:54:39;;;;;;;1.85;1.05;;;;;;;15.81;60.18;101272.75;4882839;29;20045;-80
2021/06/19 07:57:08;;;;;;;1.35;0.90;;;;;;;15.75;60.89;101287.06;4885193;29;20406;-80
2021/06/19 07:59:43;;;;;;;1.17;0.80;;;;;;;15.42;61.22;101243.09;4887173;29;20053;-80
2021/06/19 08:02:12;;;;;;;1.17;0.70;;;;;;;15.53;61.17;101274.97;4904269;29;20486;-80
2021/06/19 08:04:46;;;;;;;2.13;0.80;;;;;;;15.50;61.84;101266.38;4889889;29;20080;-79
2021/06/19 08:07:13;;;;;;;1.90;0.70;;;;;;;15.81;61.13;101264.84;4905216;29;20063;-79
2021/06/19 08:09:47;;;;;;;1.20;0.60;;;;;;;15.77;60.52;101236.97;4905307;29;20052;-79
2021/06/19 08:12:22;;;;;;;2.22;0.90;;;;;;;15.74;59.96;101202.94;4907993;29;20100;-79
2021/06/19 08:14:49;;;;;;;1.73;1.00;;;;;;;16.05;59.93;101262.78;4905099;29;20065;-79
2021/06/19 08:17:23;;;;;;;1.67;0.93;;;;;;;16.14;59.77;101275.44;4904927;29;20136;-80
2021/06/19 08:19:51;;;;;;;2.55;1.02;;;;;;;15.95;60.09;101264.16;4891665;29;20056;-79
2021/06/19 08:22:17;;;;;;;1.30;0.90;;;;;;;15.72;59.46;101181.09;4885814;29;20052;-79
2021/06/19 08:24:47;;;;;;;1.17;0.90;;;;;;;16.08;59.99;101256.50;4880564;29;20109;-79
2021/06/19 08:27:13;;;;;;;1.92;0.98;;;;;;;16.19;60.00;101251.50;4870353;29;20053;-80
2021/06/19 08:29:40;;;;;;;0.70;0.70;;;;;;;15.68;60.28;101199.69;4885790;29;20097;-80
2021/06/19 08:32:08;;;;;;;2.88;0.98;;;;;;;15.91;60.78;101271.38;4885460;29;20057;-78
2021/06/19 08:34:37;;;;;;;1.58;1.10;;;;;;;15.76;60.91;101272.97;4855527;29;20404;-79
2021/06/19 08:37:05;;;;;;;2.00;0.75;;;;;;;15.46;61.71;101262.22;4866881;29;20118;-79
2021/06/19 08:39:32;;;;;;;1.25;0.90;;;;;;;15.55;61.89;101264.41;4885238;29;20466;-79
2021/06/19 08:41:59;;;;;;;2.55;1.00;;;;;;;15.75;61.54;101268.66;4885009;29;20053;-79
2021/06/19 08:44:30;;;;;;;1.58;0.90;;;;;;;15.73;61.43;101273.13;4884840;29;20049;-78
2021/06/19 08:46:59;;;;;;;3.17;0.90;;;;;;;15.38;62.46;101259.97;4885122;29;20086;-79
2021/06/19 08:49:28;;;;;;;1.73;0.98;;;;;;;15.45;62.62;101265.78;4885036;29;20128;-80
2021/06/19 08:51:58;;;;;;;2.17;0.80;;;;;;;15.56;62.39;101254.72;4883551;29;20052;-80
2021/06/19 08:54:25;;;;;;;2.55;1.00;;;;;;;15.72;61.50;101278.47;4884629;29;20124;-80
2021/06/19 08:56:52;;;;;;;1.10;0.85;;;;;;;15.74;61.77;101276.63;4885110;29;20056;-79
2021/06/19 08:59:20;;;;;;;1.50;0.90;;;;;;;15.64;61.79;101256.03;4884352;29;20462;-80
2021/06/19 09:01:47;;;;;;;2.45;1.10;;;;;;;15.45;62.29;101234.19;4885766;29;20050;-80
2021/06/19 09:04:13;;;;;;;2.03;1.10;;;;;;;15.27;61.94;101173.72;4885499;29;20053;-79
2021/06/19 09:06:44;;;;;;;3.80;0.88;;;;;;;15.98;61.17;101253.50;4889106;29;20060;-80
2021/06/19 09:09:18;;;;;;;2.97;1.00;;;;;;;16.09;60.87;101260.84;4888603;29;20063;-80
2021/06/19 09:11:46;;;;;;;1.48;1.05;;;;;;;15.99;61.40;101252.53;4889021;29;20117;-78
2021/06/19 09:14:26;;;;;;;1.60;1.17;;;;;;;15.65;61.03;101220.06;4887973;29;20045;-78
2021/06/19 09:17:00;;;;;;;2.60;1.00;;;;;;;15.89;61.00;101231.09;4885580;29;20056;-78
2021/06/19 09:19:38;;;;;;;2.00;1.20;;;;;;;15.94;60.91;101239.63;4884397;29;20399;-79
2021/06/19 09:22:22;;;;;;;3.50;1.27;;;;;;;15.97;60.98;101250.00;4884470;29;20128;-79
2021/06/19 09:24:52;;;;;;;3.15;1.20;;;;;;;16.19;61.03;101251.50;4889824;29;20060;-79
2021/06/19 09:27:28;;;;;;;3.38;1.30;;;;;;;16.28;61.12;101258.06;4886485;29;20108;-80
2021/06/19 09:30:25;;;;;;;1.73;1.23;;;;;;;16.30;62.20;101241.22;4861444;29;20487;-78
2021/06/19 09:32:58;;;;;;;1.67;1.13;;;;;;;15.77;61.04;101193.09;4855619;29;20066;-79
2021/06/19 09:35:32;;;;;;;1.92;1.40;;;;;;;15.70;61.77;101212.75;4862632;29;20053;-83
2021/06/19 09:38:00;;;;;;;;;;;;;;;15.92;62.15;101244.13;4874322;29;20109;-82
2021/06/19 09:40:42;;;;;;;2.45;1.58;;;;;;;15.89;61.64;101225.00;4882867;29;19931;-81
2021/06/19 09:43:11;;;;;;;2.03;1.25;;;;;;;16.14;61.44;101241.19;4872059;29;20057;-83
2021/06/19 09:45:38;;;;;;;2.33;1.60;;;;;;;16.20;60.41;101210.19;4863745;29;20100;-81
2021/06/19 09:48:19;;;;;;;2.35;1.38;;;;;;;16.61;59.87;101246.63;4866103;29;20061;-82
2021/06/19 09:50:45;;;;;;;2.85;1.25;;;;;;;16.52;60.09;101258.53;4865245;29;20049;-81
2021/06/19 09:53:13;;;;;;;1.75;1.10;;;;;;;16.42;59.80;101237.09;4869956;29;20045;-80
2021/06/19 09:56:06;;;;;;;1.45;1.15;;;;;;;16.31;60.53;101247.38;4884016;29;20140;-80
2021/06/19 09:58:38;;;;;;;4.22;1.73;;;;;;;16.12;60.60;101240.44;4882496;29;20061;-81
2021/06/19 10:01:05;;;;;;;3.38;1.25;;;;;;;16.14;60.61;101248.25;4885432;29;20053;-80
2021/06/19 10:03:54;;;;;;;1.42;1.20;;;;;;;16.38;60.27;101258.41;4905631;29;20044;-80
2021/06/19 10:06:28;;;;;;;4.07;1.60;;;;;;;16.01;59.62;101174.31;4880533;29;20049;-81
2021/06/19 10:09:00;;;;;;;2.22;1.48;;;;;;;16.42;59.24;101205.47;4888208;29;20136;-80
2021/06/19 10:11:30;;;;;;;;;;;;;;;16.69;58.95;101233.03;4875901;29;20053;-80
2021/06/19 10:14:06;;;;;;;1.98;1.30;;;;;;;16.73;58.73;101232.75;4868025;29;20006;-80
2021/06/19 10:16:37;;;;;;;3.05;1.70;;;;;;;16.57;59.34;101222.22;4878239;29;20049;-83
2021/06/19 10:19:07;;;;;;;2.38;1.63;;;;;;;16.51;59.62;101225.19;4907636;29;20056;-84
2021/06/19 10:21:44;;;;;;;;;;;;;;;16.49;60.01;101224.44;4897905;29;20057;-79
2021/06/19 10:24:13;;;;;;;3.05;2.25;;;;;;;16.40;59.65;101188.88;4884615;29;19924;-81
2021/06/19 10:26:50;;;;;;;2.72;1.88;;;;;;;16.90;58.93;101234.47;4886637;29;20049;-80
2021/06/19 10:29:18;;;;;;;3.13;1.90;;;;;;;17.04;58.64;101243.41;4860161;24;20060;-81
2021/06/19 10:31:53;;;;;;;4.30;2.05;;;;;;;16.69;59.06;101230.41;4865172;29;20132;-81
2021/06/19 10:34:23;;;;;;;3.67;1.85;;;;;;;16.80;59.23;101235.94;4861841;29;20127;-79
2021/06/19 10:36:54;;;;;;;2.30;1.95;;;;;;;17.01;58.56;101236.53;4864281;29;20049;-78
2021/06/19 10:39:42;;;;;;;3.45;2.20;;;;;;;16.45;60.00;101209.72;4864701;29;20050;-79
2021/06/19 10:42:33;;;;;;;2.75;1.80;;;;;;;16.51;60.68;101235.75;4865763;29;20063;-79
2021/06/19 10:45:02;;;;;;;4.43;2.08;;;;;;;16.51;59.58;101177.75;4848484;29;20574;-79
2021/06/19 10:47:53;;;;;;;3.72;2.20;;;;;;;16.71;59.90;101242.56;4865086;29;20060;-79
2021/06/19 10:50:23;;;;;;;2.72;2.05;;;;;;;16.65;60.18;101241.09;4865026;29;20045;-79
2021/06/19 10:53:11;;;;;;;3.20;2.25;;;;;;;16.82;59.82;101236.69;4865519;29;20065;-80
2021/06/19 10:55:43;;;;;;;3.17;2.05;;;;;;;16.53;60.04;101244.41;4866133;29;20095;-80
2021/06/19 10:58:18;;;;;;;3.72;2.10;;;;;;;16.29;60.47;101246.59;4866165;29;20057;-80
2021/06/19 11:01:07;;;;;;;3.40;2.20;;;;;;;16.08;61.22;101225.72;4865596;29;20077;-80
2021/06/19 11:03:47;;;;;;;2.75;2.03;;;;;;;16.25;61.65;101243.28;4868048;29;20460;-80
2021/06/19 11:06:23;;;;;;;4.25;2.25;;;;;;;15.97;62.38;101251.78;4868686;29;20053;-81
2021/06/19 11:09:16;;;;;;;3.72;2.40;;;;;;;16.06;61.71;101248.66;4868844;29;20494;-81
2021/06/19 11:12:04;;;;;;;4.78;2.83;;;;;;;15.94;61.79;101215.94;4869603;29;20058;-82
2021/06/19 11:14:43;;;;;;;3.47;2.42;;;;;;;16.06;62.13;101232.00;4876956;29;20418;-82
2021/06/19 11:17:17;;;;;;;4.90;2.40;;;;;;;16.14;62.37;101227.19;4880342;29;20038;-81
2021/06/19 11:19:49;;;;;;;4.20;2.20;;;;;;;16.24;62.08;101224.94;4881440;29;20055;-81
2021/06/19 11:22:40;;;;;;;3.35;2.20;;;;;;;16.21;61.63;101194.34;4876918;29;20514;-81
2021/06/19 11:25:44;;;;;;;3.63;1.95;;;;;;;16.47;61.41;101228.94;4865394;29;20056;-80
2021/06/19 11:28:21;;;;;;;2.63;2.03;;;;;;;16.62;60.82;101207.03;4882210;29;20065;-80
2021/06/19 11:31:16;;;;;;;3.30;2.42;;;;;;;16.68;60.46;101182.09;4890367;29;20072;-81
2021/06/19 11:33:47;;;;;;;5.15;2.47;;;;;;;16.63;61.18;101206.06;4888882;29;20060;-79
2021/06/19 11:36:18;;;;;;;2.53;1.63;;;;;;;16.48;60.59;101202.50;4888836;29;20133;-79
2021/06/19 11:38:56;;;;;;;2.92;2.00;;;;;;;16.06;60.25;101139.84;4888503;29;20135;-80
2021/06/19 11:41:40;;;;;;;2.72;1.88;;;;;;;16.69;60.04;101190.88;4887865;29;20089;-80
2021/06/19 11:44:14;;;;;;;2.20;1.80;;;;;;;16.46;60.18;101185.91;4888689;29;20056;-79
2021/06/19 11:46:49;;;;;;;2.60;1.73;;;;;;;16.45;59.99;101139.44;4890196;29;20053;-80
2021/06/19 11:49:17;;;;;;;2.30;1.80;;;;;;;16.54;60.62;101172.34;4889028;29;20080;-79
2021/06/19 11:51:54;;;;;;;3.53;1.80;;;;;;;16.70;60.45;101174.09;4892049;29;20060;-79
2021/06/19 11:54:23;;;;;;;2.60;1.80;;;;;;;16.42;61.05;101167.75;4891265;29;20049;-79